createdAt,value
2022-11-27T00:00:34.044Z,6.30
2022-11-27T00:03:01.268Z,7.72
2022-11-27T00:05:28.401Z,9.43
2022-11-27T00:07:55.403Z,6.07
2022-11-27T00:10:22.441Z,7.05
2022-11-27T00:12:49.407Z,6.00
2022-11-27T00:15:17.468Z,8.18
2022-11-27T00:17:44.626Z,7.20
2022-11-27T00:20:13.108Z,11.27
2022-11-27T00:22:40.094Z,5.30
2022-11-27T00:25:07.628Z,6.70
2022-11-27T00:27:34.640Z,7.60
2022-11-27T00:30:01.712Z,7.88
2022-11-27T00:32:28.625Z,6.95
2022-11-27T00:34:55.581Z,8.40
2022-11-27T00:37:22.572Z,5.78
2022-11-27T00:39:49.539Z,6.93
2022-11-27T00:42:16.546Z,8.80
2022-11-27T00:44:43.560Z,8.00
2022-11-27T00:47:10.580Z,8.65
2022-11-27T00:49:37.587Z,8.32
2022-11-27T00:52:04.999Z,8.00
2022-11-27T00:54:31.970Z,11.48
2022-11-27T00:56:58.924Z,5.97
2022-11-27T00:59:26.666Z,5.68
2022-11-27T01:01:53.602Z,10.02
2022-11-27T01:04:20.639Z,8.35
2022-11-27T01:06:47.681Z,8.88
2022-11-27T01:09:15.537Z,12.77
2022-11-27T01:11:43.224Z,6.95
2022-11-27T01:14:18.736Z,6.97
2022-11-27T01:16:45.780Z,9.90
2022-11-27T01:19:13.932Z,6.45
2022-11-27T01:21:41.336Z,9.15
2022-11-27T01:24:08.949Z,6.60
2022-11-27T01:26:35.864Z,8.10
2022-11-27T01:29:02.952Z,7.63
2022-11-27T01:31:32.461Z,6.25
2022-11-27T01:34:08.041Z,6.55
2022-11-27T01:36:35.839Z,6.13
2022-11-27T01:39:02.942Z,9.30
2022-11-27T01:41:37.462Z,10.10
2022-11-27T01:44:24.355Z,10.18
2022-11-27T01:46:54.107Z,8.75
2022-11-27T01:49:44.931Z,10.15
2022-11-27T01:52:17.204Z,10.93
2022-11-27T01:54:58.500Z,9.65
2022-11-27T01:57:30.266Z,10.23
2022-11-27T02:00:00.086Z,12.52
2022-11-27T02:02:27.837Z,13.60
2022-11-27T02:04:55.687Z,9.70
2022-11-27T02:07:22.979Z,10.23
2022-11-27T02:09:50.219Z,15.15
2022-11-27T02:12:35.551Z,17.20
2022-11-27T02:15:32.665Z,10.43
2022-11-27T02:18:28.314Z,12.02
2022-11-27T02:20:58.119Z,9.60
2022-11-27T02:23:59.987Z,8.80
2022-11-27T02:27:03.652Z,11.23
2022-11-27T02:29:34.240Z,12.07
2022-11-27T02:32:42.846Z,12.55
2022-11-27T02:35:20.894Z,11.10
2022-11-27T02:37:52.139Z,12.98
2022-11-27T02:40:44.391Z,8.65
2022-11-27T02:43:43.074Z,11.00
2022-11-27T02:46:13.197Z,10.80
2022-11-27T02:48:46.225Z,13.18
2022-11-27T02:51:15.160Z,11.02
2022-11-27T02:53:49.946Z,14.35
2022-11-27T02:56:20.289Z,11.98
2022-11-27T02:58:49.198Z,11.98
2022-11-27T03:01:20.526Z,11.38
2022-11-27T03:03:52.660Z,10.13
2022-11-27T03:06:30.101Z,15.70
2022-11-27T03:09:06.859Z,14.90
2022-11-27T03:11:34.509Z,10.70
2022-11-27T03:14:06.510Z,18.85
2022-11-27T03:16:42.393Z,14.55
2022-11-27T03:19:37.834Z,12.02
2022-11-27T03:22:05.458Z,14.05
2022-11-27T03:24:35.280Z,11.25
2022-11-27T03:27:03.786Z,12.18
2022-11-27T03:29:41.323Z,12.45
2022-11-27T03:32:08.838Z,13.70
2022-11-27T03:34:36.831Z,13.80
2022-11-27T03:37:04.830Z,16.48
2022-11-27T03:39:33.518Z,17.67
2022-11-27T03:42:05.467Z,15.20
2022-11-27T03:45:05.798Z,14.13
2022-11-27T03:47:55.880Z,11.70
2022-11-27T03:50:22.987Z,12.68
2022-11-27T03:53:08.736Z,15.63
2022-11-27T03:55:47.688Z,11.10
2022-11-27T03:58:32.924Z,15.43
2022-11-27T04:01:01.737Z,12.95
2022-11-27T04:03:30.208Z,13.70
2022-11-27T04:05:57.738Z,20.70
2022-11-27T04:08:24.968Z,15.98
2022-11-27T04:10:51.969Z,16.88
2022-11-27T04:13:18.958Z,13.18
2022-11-27T04:15:46.364Z,14.10
2022-11-27T04:18:13.446Z,15.70
2022-11-27T04:20:40.486Z,13.10
2022-11-27T04:23:07.477Z,19.38
2022-11-27T04:25:34.478Z,15.05
2022-11-27T04:28:01.541Z,13.38
2022-11-27T04:30:28.500Z,13.35
2022-11-27T04:32:55.444Z,11.85
2022-11-27T04:35:22.426Z,13.20
2022-11-27T04:37:49.358Z,20.70
2022-11-27T04:40:16.375Z,15.02
2022-11-27T04:42:43.356Z,16.15
2022-11-27T04:45:10.879Z,14.05
2022-11-27T04:47:37.853Z,13.32
2022-11-27T04:50:05.385Z,14.05
2022-11-27T04:52:32.431Z,15.05
2022-11-27T04:55:00.444Z,14.77
2022-11-27T04:57:27.885Z,14.45
2022-11-27T04:59:54.966Z,17.85
2022-11-27T05:02:22.275Z,15.45
2022-11-27T05:04:49.371Z,15.85
2022-11-27T05:07:16.428Z,12.35
2022-11-27T05:09:43.455Z,16.23
2022-11-27T05:12:10.429Z,13.57
2022-11-27T05:14:37.507Z,11.35
2022-11-27T05:17:04.828Z,13.00
2022-11-27T05:19:32.379Z,12.73
2022-11-27T05:21:59.670Z,11.88
2022-11-27T05:24:28.492Z,15.25
2022-11-27T05:26:56.770Z,14.68
2022-11-27T05:29:26.271Z,16.80
2022-11-27T05:31:53.483Z,15.15
2022-11-27T05:34:20.939Z,14.73
2022-11-27T05:36:47.974Z,19.80
2022-11-27T05:39:15.551Z,13.95
2022-11-27T05:41:43.652Z,14.00
2022-11-27T05:44:15.217Z,11.02
2022-11-27T05:46:45.838Z,8.80
2022-11-27T05:49:14.271Z,12.57
2022-11-27T05:51:44.186Z,8.48
2022-11-27T05:54:16.335Z,10.38
2022-11-27T05:56:43.265Z,12.13
2022-11-27T05:59:11.013Z,12.98
2022-11-27T06:01:38.154Z,11.20
2022-11-27T06:04:05.290Z,11.35
2022-11-27T06:06:32.850Z,8.23
2022-11-27T06:09:00.529Z,9.38
2022-11-27T06:11:27.675Z,10.00
2022-11-27T06:13:54.655Z,9.55
2022-11-27T06:16:23.717Z,11.75
2022-11-27T06:18:52.738Z,14.85
2022-11-27T06:21:20.953Z,9.48
2022-11-27T06:23:47.973Z,14.27
2022-11-27T06:26:23.948Z,15.57
2022-11-27T06:28:51.620Z,10.63
2022-11-27T06:31:21.864Z,10.07
2022-11-27T06:33:51.045Z,8.90
2022-11-27T06:36:19.291Z,8.68
2022-11-27T06:38:47.065Z,10.18
2022-11-27T06:41:24.221Z,9.27
2022-11-27T06:43:51.553Z,8.30
2022-11-27T06:46:21.259Z,9.20
2022-11-27T06:48:50.015Z,10.35
2022-11-27T06:51:19.987Z,10.05
2022-11-27T06:53:48.239Z,9.50
2022-11-27T06:56:19.501Z,11.02
2022-11-27T06:58:46.565Z,17.63
2022-11-27T07:01:16.479Z,11.18
2022-11-27T07:03:44.744Z,11.75
2022-11-27T07:06:15.549Z,14.05
2022-11-27T07:08:42.631Z,11.20
2022-11-27T07:11:22.578Z,11.10
2022-11-27T07:13:51.312Z,10.82
2022-11-27T07:16:19.217Z,12.50
2022-11-27T07:18:51.295Z,13.75
2022-11-27T07:21:18.701Z,17.88
2022-11-27T07:23:45.939Z,18.35
2022-11-27T07:26:15.591Z,15.88
2022-11-27T07:28:45.916Z,21.67
2022-11-27T07:31:15.575Z,16.73
2022-11-27T07:33:42.584Z,20.27
2022-11-27T07:36:17.514Z,13.60
2022-11-27T07:38:45.733Z,19.90
2022-11-27T07:41:13.994Z,16.85
2022-11-27T07:43:42.484Z,15.90
2022-11-27T07:46:16.412Z,15.93
2022-11-27T07:48:43.639Z,18.33
2022-11-27T07:51:12.953Z,19.00
2022-11-27T07:53:41.853Z,16.70
2022-11-27T07:56:11.517Z,15.63
2022-11-27T07:58:38.616Z,14.95
2022-11-27T08:01:11.268Z,14.98
2022-11-27T08:03:38.644Z,16.15
2022-11-27T08:06:13.271Z,16.40
2022-11-27T08:08:40.190Z,16.00
2022-11-27T08:11:07.134Z,14.93
2022-11-27T08:13:34.124Z,15.90
2022-11-27T08:16:01.186Z,17.55
2022-11-27T08:18:28.301Z,13.00
2022-11-27T08:20:55.261Z,17.83
2022-11-27T08:23:22.279Z,12.95
2022-11-27T08:25:49.314Z,12.90
2022-11-27T08:28:16.260Z,15.77
2022-11-27T08:30:43.270Z,13.35
2022-11-27T08:33:10.935Z,13.27
2022-11-27T08:35:37.973Z,13.80
2022-11-27T08:38:05.106Z,14.40
2022-11-27T08:40:32.144Z,16.10
2022-11-27T08:42:59.421Z,16.13
2022-11-27T08:45:26.445Z,17.90
2022-11-27T08:47:53.637Z,21.02
2022-11-27T08:50:20.639Z,21.45
2022-11-27T08:52:47.605Z,23.48
2022-11-27T08:55:14.604Z,20.48
2022-11-27T08:57:41.619Z,19.50
2022-11-27T09:00:09.335Z,20.70
2022-11-27T09:02:36.381Z,17.55
2022-11-27T09:05:05.933Z,25.98
2022-11-27T09:07:32.983Z,22.20
2022-11-27T09:10:00.046Z,20.10
2022-11-27T09:12:27.688Z,20.90
2022-11-27T09:14:54.706Z,24.42
2022-11-27T09:17:21.704Z,32.97
2022-11-27T09:19:48.670Z,24.80
2022-11-27T09:22:15.689Z,23.00
2022-11-27T09:24:43.038Z,28.27
2022-11-27T09:27:10.917Z,26.40
2022-11-27T09:29:38.061Z,27.10
2022-11-27T09:32:05.185Z,22.55
2022-11-27T09:34:37.150Z,23.35
2022-11-27T09:37:05.305Z,23.08
2022-11-27T09:39:34.113Z,20.05
2022-11-27T09:42:06.302Z,24.00
2022-11-27T09:45:00.778Z,24.10
2022-11-27T09:47:36.094Z,23.52
2022-11-27T09:50:19.153Z,21.88
2022-11-27T09:53:00.225Z,25.83
2022-11-27T09:55:36.811Z,21.63
2022-11-27T09:58:17.991Z,24.20
2022-11-27T10:00:46.856Z,24.25
2022-11-27T10:03:15.723Z,27.17
2022-11-27T10:06:11.089Z,22.65
2022-11-27T10:09:14.500Z,23.17
2022-11-27T10:11:50.207Z,21.92
2022-11-27T10:15:00.095Z,21.05
2022-11-27T10:18:03.888Z,21.70
2022-11-27T10:20:49.085Z,21.33
2022-11-27T10:23:32.584Z,25.48
2022-11-27T10:26:04.554Z,24.17
2022-11-27T10:28:37.943Z,20.15
2022-11-27T10:31:17.836Z,23.48
2022-11-27T10:33:54.964Z,22.50
2022-11-27T10:36:39.136Z,18.55
2022-11-27T10:39:16.330Z,26.83
2022-11-27T10:42:10.707Z,21.13
2022-11-27T10:44:56.905Z,22.00
2022-11-27T10:47:28.543Z,20.20
2022-11-27T10:49:57.997Z,19.52
2022-11-27T10:52:25.354Z,19.45
2022-11-27T10:55:03.573Z,21.35
2022-11-27T10:57:38.771Z,19.55
2022-11-27T11:00:23.341Z,24.90
2022-11-27T11:03:04.733Z,14.80
2022-11-27T11:05:45.482Z,20.23
2022-11-27T11:08:21.159Z,20.75
2022-11-27T11:11:02.600Z,24.13
2022-11-27T11:13:30.541Z,21.80
2022-11-27T11:16:14.509Z,23.60
2022-11-27T11:18:51.177Z,27.35
2022-11-27T11:21:40.703Z,18.65
2022-11-27T11:24:15.990Z,16.92
2022-11-27T11:26:52.560Z,20.88
2022-11-27T11:29:34.437Z,18.17
2022-11-27T11:32:22.122Z,22.38
2022-11-27T11:35:03.075Z,19.98
2022-11-27T11:37:42.234Z,21.73
2022-11-27T11:40:33.837Z,22.50
2022-11-27T11:43:10.350Z,20.45
2022-11-27T11:45:47.080Z,22.77
2022-11-27T11:48:24.389Z,21.63
2022-11-27T11:50:56.301Z,20.83
2022-11-27T11:53:35.622Z,22.33
2022-11-27T11:56:08.465Z,20.50
2022-11-27T11:58:49.283Z,22.55
2022-11-27T12:01:27.523Z,18.98
2022-11-27T12:04:13.042Z,20.20
2022-11-27T12:06:58.195Z,21.63
2022-11-27T12:09:31.092Z,21.38
2022-11-27T12:12:01.612Z,25.08
2022-11-27T12:15:07.425Z,20.80
2022-11-27T12:17:48.597Z,23.13
2022-11-27T12:20:26.575Z,20.73
2022-11-27T12:23:28.653Z,19.55
2022-11-27T12:26:01.952Z,21.92
2022-11-27T12:28:39.264Z,22.75
2022-11-27T12:31:28.472Z,22.33
2022-11-27T12:34:01.621Z,22.77
2022-11-27T12:36:54.920Z,21.20
2022-11-27T12:39:32.802Z,20.95
2022-11-27T12:42:07.710Z,22.70
2022-11-27T12:44:53.474Z,22.13
2022-11-27T12:47:44.695Z,20.75
2022-11-27T12:50:34.407Z,23.42
2022-11-27T12:53:18.803Z,21.67
2022-11-27T12:56:29.335Z,28.70
2022-11-27T12:59:19.504Z,20.35
2022-11-27T13:02:00.291Z,28.27
2022-11-27T13:04:52.848Z,23.70
2022-11-27T13:07:22.893Z,21.17
2022-11-27T13:09:59.090Z,19.67
2022-11-27T13:12:39.435Z,22.55
2022-11-27T13:15:26.186Z,22.48
2022-11-27T13:18:03.208Z,25.77
2022-11-27T13:20:39.392Z,21.25
2022-11-27T13:23:06.663Z,28.63
2022-11-27T13:25:41.217Z,26.15
2022-11-27T13:28:09.288Z,25.67
2022-11-27T13:30:38.414Z,21.42
2022-11-27T13:33:07.564Z,27.20
2022-11-27T13:35:34.690Z,20.52
2022-11-27T13:38:13.800Z,21.98
2022-11-27T13:40:47.881Z,23.08
2022-11-27T13:43:19.862Z,22.52
2022-11-27T13:45:47.652Z,21.10
2022-11-27T13:48:29.702Z,22.08
2022-11-27T13:50:58.861Z,22.75
2022-11-27T13:53:41.647Z,23.63
2022-11-27T13:56:10.456Z,23.27
2022-11-27T13:58:42.907Z,24.10
2022-11-27T14:01:21.594Z,26.40
2022-11-27T14:03:50.229Z,22.92
2022-11-27T14:06:23.135Z,26.13
2022-11-27T14:09:01.843Z,20.23
2022-11-27T14:11:40.742Z,26.42
2022-11-27T14:14:23.978Z,22.45
2022-11-27T14:17:01.977Z,19.92
2022-11-27T14:19:56.029Z,21.13
2022-11-27T14:23:09.995Z,18.00
2022-11-27T14:25:36.366Z,26.65
2022-11-27T14:28:26.496Z,24.13
2022-11-27T14:30:57.661Z,26.35
2022-11-27T14:33:31.225Z,26.77
2022-11-27T14:36:05.015Z,30.80
2022-11-27T14:38:33.969Z,23.85
2022-11-27T14:41:23.314Z,25.73
2022-11-27T14:44:03.566Z,24.77
2022-11-27T14:46:36.353Z,20.25
2022-11-27T14:49:04.542Z,27.08
2022-11-27T14:51:35.533Z,29.33
2022-11-27T14:54:12.375Z,25.13
2022-11-27T14:56:46.146Z,30.85
2022-11-27T14:59:19.085Z,27.30
2022-11-27T15:01:58.856Z,27.50
2022-11-27T15:04:33.078Z,29.25
2022-11-27T15:07:00.754Z,27.33
2022-11-27T15:09:43.203Z,27.17
2022-11-27T15:12:29.984Z,30.42
2022-11-27T15:15:06.719Z,27.35
2022-11-27T15:17:37.748Z,24.70
2022-11-27T15:20:16.017Z,24.60
2022-11-27T15:22:57.925Z,35.63
2022-11-27T15:26:12.579Z,26.38
2022-11-27T15:28:53.751Z,24.25
2022-11-27T15:31:37.975Z,29.70
2022-11-27T15:34:14.481Z,29.45
2022-11-27T15:36:44.319Z,24.80
2022-11-27T15:39:52.156Z,23.48
2022-11-27T15:42:20.526Z,24.48
2022-11-27T15:44:49.716Z,29.83
2022-11-27T15:47:34.610Z,43.17
2022-11-27T15:50:02.210Z,61.53
2022-11-27T15:52:29.326Z,98.93
2022-11-27T15:54:57.146Z,52.33
2022-11-27T15:57:25.600Z,51.47
2022-11-27T15:59:53.199Z,59.15
2022-11-27T16:02:20.645Z,54.42
2022-11-27T16:04:47.873Z,73.15
2022-11-27T16:07:17.311Z,52.10
2022-11-27T16:09:44.552Z,47.72
2022-11-27T16:12:12.067Z,38.75
2022-11-27T16:14:39.434Z,34.78
2022-11-27T16:17:06.720Z,43.83
2022-11-27T16:19:34.107Z,50.63
2022-11-27T16:22:01.315Z,49.00
2022-11-27T16:24:28.749Z,34.65
2022-11-27T16:26:58.824Z,43.85
2022-11-27T16:29:26.519Z,41.45
2022-11-27T16:31:54.165Z,41.10
2022-11-27T16:34:22.367Z,41.95
2022-11-27T16:36:50.086Z,35.65
2022-11-27T16:39:18.238Z,39.45
2022-11-27T16:41:45.891Z,39.70
2022-11-27T16:44:15.378Z,45.33
2022-11-27T16:46:44.795Z,42.58
2022-11-27T16:49:13.448Z,36.88
2022-11-27T16:51:42.009Z,41.53
2022-11-27T16:54:13.359Z,43.97
2022-11-27T16:56:41.072Z,38.10
2022-11-27T16:59:15.959Z,50.90
2022-11-27T17:01:45.372Z,48.42
2022-11-27T17:04:20.090Z,65.45
2022-11-27T17:06:49.465Z,61.60
2022-11-27T17:09:17.702Z,89.97
2022-11-27T17:11:48.922Z,83.28
2022-11-27T17:14:17.285Z,75.22
2022-11-27T17:16:45.425Z,55.53
2022-11-27T17:19:14.311Z,51.50
2022-11-27T17:21:42.642Z,50.78
2022-11-27T17:24:16.503Z,40.17
2022-11-27T17:26:44.987Z,41.90
2022-11-27T17:29:14.534Z,34.70
2022-11-27T17:31:43.060Z,41.67
2022-11-27T17:34:14.842Z,34.65
2022-11-27T17:36:43.665Z,38.00
2022-11-27T17:39:13.575Z,36.80
2022-11-27T17:41:45.378Z,36.72
2022-11-27T17:44:13.315Z,34.10
2022-11-27T17:46:41.197Z,36.03
2022-11-27T17:49:11.511Z,37.70
2022-11-27T17:51:39.067Z,48.05
2022-11-27T17:54:06.570Z,61.10
2022-11-27T17:56:36.383Z,57.67
2022-11-27T17:59:04.755Z,46.47
2022-11-27T18:01:34.872Z,47.72
2022-11-27T18:04:04.795Z,46.42
2022-11-27T18:06:33.523Z,40.15
2022-11-27T18:09:01.394Z,27.88
2022-11-27T18:11:33.375Z,35.50
2022-11-27T18:14:02.621Z,27.15
2022-11-27T18:16:39.242Z,29.10
2022-11-27T18:19:11.133Z,32.85
2022-11-27T18:21:41.259Z,27.92
2022-11-27T18:24:25.343Z,30.75
2022-11-27T18:27:11.529Z,26.17
2022-11-27T18:29:42.680Z,24.95
2022-11-27T18:32:12.970Z,27.58
2022-11-27T18:34:42.066Z,25.25
2022-11-27T18:37:11.009Z,31.63
2022-11-27T18:39:40.780Z,24.58
2022-11-27T18:42:09.052Z,23.55
2022-11-27T18:44:44.402Z,22.88
2022-11-27T18:47:15.910Z,21.45
2022-11-27T18:49:45.135Z,24.40
2022-11-27T18:52:12.997Z,24.60
2022-11-27T18:54:40.876Z,23.55
2022-11-27T18:57:08.803Z,23.45
2022-11-27T18:59:36.868Z,22.27
2022-11-27T19:02:05.898Z,29.20
2022-11-27T19:04:38.151Z,22.75
2022-11-27T19:07:06.540Z,27.45
2022-11-27T19:09:36.125Z,22.10
2022-11-27T19:12:04.413Z,20.35
2022-11-27T19:14:32.052Z,17.85
2022-11-27T19:17:00.259Z,17.10
2022-11-27T19:22:20.700Z,21.35
2022-11-27T19:24:50.768Z,23.73
2022-11-27T19:27:19.260Z,26.20
2022-11-27T19:29:47.350Z,29.13
2022-11-27T19:32:15.317Z,22.73
2022-11-27T19:34:46.247Z,26.35
2022-11-27T19:37:21.361Z,23.67
2022-11-27T19:40:01.708Z,24.98
2022-11-27T19:42:29.613Z,25.00
2022-11-27T19:44:57.152Z,25.88
2022-11-27T19:47:25.168Z,26.17
2022-11-27T19:49:53.458Z,25.08
2022-11-27T19:52:21.360Z,26.23
2022-11-27T19:54:52.297Z,29.95
2022-11-27T19:57:20.489Z,41.45
2022-11-27T19:59:49.918Z,47.65
2022-11-27T20:02:19.870Z,55.20
2022-11-27T20:04:47.876Z,46.80
2022-11-27T20:07:16.071Z,43.33
2022-11-27T20:09:43.868Z,43.05
2022-11-27T20:12:12.505Z,49.50
2022-11-27T20:14:40.507Z,40.00
2022-11-27T20:17:08.726Z,35.10
2022-11-27T20:19:36.987Z,41.85
2022-11-27T20:22:04.898Z,32.38
2022-11-27T20:24:34.444Z,36.45
2022-11-27T20:27:04.135Z,29.67
2022-11-27T20:29:32.890Z,27.33
2022-11-27T20:32:02.289Z,46.70
2022-11-27T20:34:29.956Z,32.50
2022-11-27T20:36:58.060Z,29.77
2022-11-27T20:39:25.867Z,29.60
2022-11-27T20:41:54.072Z,27.40
2022-11-27T20:44:25.817Z,24.88
2022-11-27T20:46:53.787Z,30.55
2022-11-27T20:49:21.722Z,29.70
2022-11-27T20:51:51.187Z,31.67
2022-11-27T20:54:19.450Z,27.23
2022-11-27T20:56:48.228Z,35.85
2022-11-27T20:59:16.146Z,33.55
2022-11-27T21:01:45.204Z,27.20
2022-11-27T21:04:24.337Z,26.63
2022-11-27T21:06:54.009Z,30.15
2022-11-27T21:09:22.478Z,25.58
2022-11-27T21:11:51.086Z,27.40
2022-11-27T21:14:18.706Z,33.60
2022-11-27T21:16:48.988Z,25.25
2022-11-27T21:19:27.445Z,24.45
2022-11-27T21:21:55.619Z,31.85
2022-11-27T21:24:26.306Z,28.88
2022-11-27T21:26:54.012Z,26.02
2022-11-27T21:29:25.860Z,29.00
2022-11-27T21:31:54.113Z,34.33
2022-11-27T21:34:23.461Z,37.50
2022-11-27T21:36:50.777Z,40.92
2022-11-27T21:39:20.718Z,30.38
2022-11-27T21:41:49.835Z,32.80
2022-11-27T21:44:18.117Z,32.33
2022-11-27T21:46:46.338Z,27.58
2022-11-27T21:49:15.840Z,29.50
2022-11-27T21:51:43.706Z,34.97
2022-11-27T21:54:13.126Z,38.88
2022-11-27T21:56:41.017Z,29.30
2022-11-27T21:59:11.066Z,34.92
2022-11-27T22:01:38.803Z,28.13
2022-11-27T22:04:06.260Z,35.15
2022-11-27T22:06:38.555Z,36.67
2022-11-27T22:09:10.511Z,29.52
2022-11-27T22:11:40.547Z,22.58
2022-11-27T22:14:08.995Z,29.73
2022-11-27T22:16:44.394Z,25.85
2022-11-27T22:19:12.606Z,29.48
2022-11-27T22:21:39.594Z,31.23
2022-11-27T22:24:06.930Z,25.58
2022-11-27T22:26:33.945Z,25.75
2022-11-27T22:29:00.938Z,24.55
2022-11-27T22:31:31.183Z,24.65
2022-11-27T22:33:58.498Z,25.88
2022-11-27T22:36:31.946Z,25.73
2022-11-27T22:39:02.460Z,28.48
2022-11-27T22:41:31.567Z,26.30
2022-11-27T22:44:02.595Z,26.25
2022-11-27T22:46:33.111Z,24.40
2022-11-27T22:49:02.734Z,28.45
2022-11-27T22:51:32.026Z,27.38
2022-11-27T22:53:59.381Z,24.13
2022-11-27T22:56:26.380Z,25.88
2022-11-27T22:59:11.305Z,27.73
2022-11-27T23:01:41.026Z,28.98
2022-11-27T23:04:08.192Z,26.95
2022-11-27T23:06:35.226Z,27.00
2022-11-27T23:09:02.266Z,29.00
2022-11-27T23:11:29.277Z,30.92
2022-11-27T23:13:58.201Z,27.08
2022-11-27T23:16:25.602Z,27.20
2022-11-27T23:18:52.746Z,29.55
2022-11-27T23:21:22.289Z,27.48
2022-11-27T23:23:49.559Z,28.15
2022-11-27T23:26:19.778Z,30.02
2022-11-27T23:28:47.865Z,31.35
2022-11-27T23:31:34.838Z,30.77
2022-11-27T23:34:05.269Z,26.75
2022-11-27T23:36:33.451Z,30.88
2022-11-27T23:39:02.109Z,30.65
2022-11-27T23:41:29.465Z,34.25
2022-11-27T23:43:57.466Z,26.90
2022-11-27T23:46:27.228Z,36.20
2022-11-27T23:49:00.266Z,30.38
2022-11-27T23:51:30.112Z,30.20
2022-11-27T23:53:57.566Z,29.25
2022-11-27T23:56:26.545Z,28.67
2022-11-27T23:58:55.119Z,30.40
